createdAt,value
2023-12-23T00:00:30.191Z,3.59
2023-12-23T00:01:30.167Z,3.59
2023-12-23T00:02:30.174Z,3.51
2023-12-23T00:03:30.211Z,3.66
2023-12-23T00:04:30.191Z,3.64
2023-12-23T00:05:30.220Z,3.64
2023-12-23T00:06:30.136Z,3.64
2023-12-23T00:07:30.121Z,3.72
2023-12-23T00:08:30.740Z,3.72
2023-12-23T00:09:30.115Z,3.69
2023-12-23T00:10:30.128Z,3.69
2023-12-23T00:11:30.064Z,3.74
2023-12-23T00:12:30.135Z,3.63
2023-12-23T00:13:30.045Z,3.66
2023-12-23T00:14:30.062Z,3.72
2023-12-23T00:15:30.026Z,3.69
2023-12-23T00:16:30.036Z,3.73
2023-12-23T00:17:30.430Z,3.66
2023-12-23T00:18:30.128Z,3.64
2023-12-23T00:19:30.152Z,3.64
2023-12-23T00:20:30.060Z,3.63
2023-12-23T00:21:30.022Z,3.62
2023-12-23T00:22:29.957Z,3.66
2023-12-23T00:23:29.937Z,3.67
2023-12-23T00:24:29.951Z,3.63
2023-12-23T00:25:29.914Z,3.62
2023-12-23T00:26:29.901Z,3.69
2023-12-23T00:27:29.901Z,3.73
2023-12-23T00:28:29.876Z,3.63
2023-12-23T00:29:29.906Z,3.72
2023-12-23T00:30:29.873Z,3.70
2023-12-23T00:31:29.863Z,3.67
2023-12-23T00:32:29.946Z,3.60
2023-12-23T00:33:29.847Z,3.64
2023-12-23T00:34:29.825Z,3.62
2023-12-23T00:35:29.816Z,3.63
2023-12-23T00:36:29.811Z,3.60
2023-12-23T00:37:29.870Z,3.66
2023-12-23T00:38:29.776Z,3.66
2023-12-23T00:39:29.772Z,3.63
2023-12-23T00:40:29.754Z,3.60
2023-12-23T00:41:29.754Z,3.64
2023-12-23T00:42:29.725Z,3.56
2023-12-23T00:43:29.742Z,3.52
2023-12-23T00:44:29.748Z,3.60
2023-12-23T00:45:29.704Z,3.62
2023-12-23T00:46:29.704Z,3.59
2023-12-23T00:47:33.295Z,3.60
2023-12-23T00:48:30.746Z,3.60
2023-12-23T00:49:29.693Z,3.62
2023-12-23T00:50:29.649Z,3.54
2023-12-23T00:51:29.644Z,3.56
2023-12-23T00:52:29.668Z,3.52
2023-12-23T00:53:29.632Z,3.51
2023-12-23T00:54:29.649Z,3.52
2023-12-23T00:55:29.599Z,3.55
2023-12-23T00:56:29.622Z,3.48
2023-12-23T00:57:29.573Z,3.48
2023-12-23T00:58:29.590Z,3.48
2023-12-23T00:59:29.553Z,3.46
2023-12-23T01:00:29.639Z,3.54
2023-12-23T01:01:29.599Z,3.42
2023-12-23T01:02:29.526Z,3.48
2023-12-23T01:03:30.015Z,3.46
2023-12-23T01:04:29.566Z,3.45
2023-12-23T01:05:29.503Z,3.49
2023-12-23T01:06:29.507Z,3.46
2023-12-23T01:07:29.481Z,3.36
2023-12-23T01:08:29.540Z,3.42
2023-12-23T01:09:29.441Z,3.36
2023-12-23T01:10:29.431Z,3.46
2023-12-23T01:11:29.430Z,3.33
2023-12-23T01:12:29.444Z,3.37
2023-12-23T01:13:29.422Z,3.45
2023-12-23T01:14:29.392Z,3.44
2023-12-23T01:15:29.385Z,3.41
2023-12-23T01:16:29.429Z,3.45
2023-12-23T01:17:29.547Z,3.41
2023-12-23T01:18:29.444Z,3.33
2023-12-23T01:19:29.393Z,3.37
2023-12-23T01:20:29.389Z,3.36
2023-12-23T01:21:29.313Z,3.44
2023-12-23T01:22:29.311Z,3.36
2023-12-23T01:23:29.293Z,3.41
2023-12-23T01:24:29.304Z,3.44
2023-12-23T01:25:29.294Z,3.42
2023-12-23T01:26:29.267Z,3.41
2023-12-23T01:27:29.247Z,3.44
2023-12-23T01:28:29.254Z,3.41
2023-12-23T01:29:29.232Z,3.46
2023-12-23T01:30:29.266Z,3.27
2023-12-23T01:31:29.260Z,3.46
2023-12-23T01:32:29.290Z,3.44
2023-12-23T01:33:29.278Z,3.42
2023-12-23T01:34:29.194Z,3.45
2023-12-23T01:35:29.229Z,3.42
2023-12-23T01:36:29.151Z,3.41
2023-12-23T01:37:29.150Z,3.46
2023-12-23T01:38:29.149Z,3.36
2023-12-23T01:39:29.124Z,3.46
2023-12-23T01:40:29.187Z,3.45
2023-12-23T01:41:29.099Z,3.42
2023-12-23T01:42:29.094Z,3.49
2023-12-23T01:43:29.078Z,3.36
2023-12-23T01:44:29.067Z,3.49
2023-12-23T01:45:29.077Z,3.46
2023-12-23T01:46:29.046Z,3.45
2023-12-23T01:47:29.069Z,3.44
2023-12-23T01:48:29.201Z,3.44
2023-12-23T01:49:29.017Z,3.49
2023-12-23T01:50:29.031Z,3.51
2023-12-23T01:51:28.995Z,3.46
2023-12-23T01:52:28.976Z,3.48
2023-12-23T01:53:29.005Z,3.49
2023-12-23T01:54:28.957Z,3.44
2023-12-23T01:55:28.997Z,3.54
2023-12-23T01:56:28.953Z,3.48
2023-12-23T01:57:28.925Z,3.51
2023-12-23T01:58:28.957Z,3.54
2023-12-23T01:59:28.909Z,3.56
2023-12-23T02:00:28.904Z,3.67
2023-12-23T02:01:28.939Z,3.52
2023-12-23T02:02:28.947Z,3.55
2023-12-23T02:03:28.957Z,3.64
2023-12-23T02:04:28.863Z,3.60
2023-12-23T02:05:28.985Z,3.60
2023-12-23T02:06:28.838Z,3.69
2023-12-23T02:07:28.820Z,3.69
2023-12-23T02:08:28.837Z,3.62
2023-12-23T02:09:28.831Z,3.66
2023-12-23T02:10:28.784Z,3.67
2023-12-23T02:11:28.792Z,3.60
2023-12-23T02:12:28.789Z,3.64
2023-12-23T02:13:28.794Z,3.62
2023-12-23T02:14:28.756Z,3.72
2023-12-23T02:15:28.745Z,3.66
2023-12-23T02:16:28.753Z,3.60
2023-12-23T02:17:28.733Z,3.64
2023-12-23T02:18:29.100Z,3.63
2023-12-23T02:19:28.694Z,3.66
2023-12-23T02:20:28.684Z,3.59
2023-12-23T02:21:28.700Z,3.49
2023-12-23T02:22:28.664Z,3.59
2023-12-23T02:23:28.730Z,3.51
2023-12-23T02:24:28.678Z,3.62
2023-12-23T02:25:28.631Z,3.63
2023-12-23T02:26:28.656Z,3.54
2023-12-23T02:27:28.622Z,3.52
2023-12-23T02:28:28.641Z,3.44
2023-12-23T02:29:28.621Z,3.45
2023-12-23T02:30:28.620Z,3.51
2023-12-23T02:31:28.563Z,3.44
2023-12-23T02:32:28.614Z,3.45
2023-12-23T02:33:28.805Z,3.42
2023-12-23T02:34:28.532Z,3.37
2023-12-23T02:35:28.528Z,3.44
2023-12-23T02:36:28.508Z,3.46
2023-12-23T02:37:28.503Z,3.41
2023-12-23T02:38:28.532Z,3.41
2023-12-23T02:39:28.490Z,3.42
2023-12-23T02:40:28.486Z,3.45
2023-12-23T02:41:28.468Z,3.36
2023-12-23T02:42:28.456Z,3.49
2023-12-23T02:43:28.472Z,3.48
2023-12-23T02:44:28.475Z,3.54
2023-12-23T02:45:28.448Z,3.48
2023-12-23T02:46:28.406Z,3.49
2023-12-23T02:47:28.421Z,3.35
2023-12-23T02:48:28.432Z,3.46
2023-12-23T02:49:28.400Z,3.41
2023-12-23T02:50:28.383Z,3.35
2023-12-23T02:51:28.361Z,3.37
2023-12-23T02:52:28.347Z,3.36
2023-12-23T02:53:28.362Z,3.33
2023-12-23T02:54:28.360Z,3.32
2023-12-23T02:55:28.313Z,3.36
2023-12-23T02:56:28.291Z,3.27
2023-12-23T02:57:28.280Z,3.42
2023-12-23T02:58:28.271Z,3.29
2023-12-23T02:59:28.302Z,3.33
2023-12-23T03:00:28.296Z,3.36
2023-12-23T03:01:28.267Z,3.33
2023-12-23T03:02:28.431Z,3.36
2023-12-23T03:03:28.265Z,3.37
2023-12-23T03:04:28.205Z,3.33
2023-12-23T03:05:28.416Z,3.30
2023-12-23T03:06:28.185Z,3.36
2023-12-23T03:07:28.182Z,3.36
2023-12-23T03:08:28.173Z,3.35
2023-12-23T03:09:28.162Z,3.32
2023-12-23T03:10:28.171Z,3.30
2023-12-23T03:11:28.158Z,3.25
2023-12-23T03:12:28.120Z,3.26
2023-12-23T03:13:28.219Z,3.37
2023-12-23T03:14:28.101Z,3.33
2023-12-23T03:15:28.134Z,3.27
2023-12-23T03:16:28.104Z,3.32
2023-12-23T03:17:28.088Z,3.26
2023-12-23T03:18:28.108Z,3.23
2023-12-23T03:19:28.058Z,3.33
2023-12-23T03:20:28.082Z,3.33
2023-12-23T03:21:28.024Z,3.20
2023-12-23T03:22:28.017Z,3.22
2023-12-23T03:23:28.201Z,3.27
2023-12-23T03:24:27.995Z,3.23
2023-12-23T03:25:28.025Z,3.22
2023-12-23T03:26:27.982Z,3.23
2023-12-23T03:27:27.964Z,3.25
2023-12-23T03:28:27.949Z,3.22
2023-12-23T03:29:27.939Z,3.22
2023-12-23T03:30:27.964Z,3.17
2023-12-23T03:31:27.953Z,3.17
2023-12-23T03:32:27.984Z,3.15
2023-12-23T03:33:27.938Z,3.18
2023-12-23T03:34:27.889Z,3.25
2023-12-23T03:35:27.877Z,3.20
2023-12-23T03:36:27.890Z,3.29
2023-12-23T03:37:27.864Z,3.27
2023-12-23T03:38:27.861Z,3.17
2023-12-23T03:39:27.827Z,3.22
2023-12-23T03:40:27.820Z,3.25
2023-12-23T03:41:27.833Z,3.22
2023-12-23T03:42:27.808Z,3.25
2023-12-23T03:43:27.814Z,3.25
2023-12-23T03:44:27.780Z,3.26
2023-12-23T03:45:27.776Z,3.32
2023-12-23T03:46:27.801Z,3.23
2023-12-23T03:47:27.760Z,3.23
2023-12-23T03:48:27.822Z,3.18
2023-12-23T03:49:27.729Z,3.18
2023-12-23T03:50:27.711Z,3.20
2023-12-23T03:51:27.759Z,3.18
2023-12-23T03:52:27.686Z,3.23
2023-12-23T03:53:27.778Z,3.18
2023-12-23T03:54:27.682Z,3.27
2023-12-23T03:55:27.703Z,3.23
2023-12-23T03:56:27.679Z,3.26
2023-12-23T03:57:27.649Z,3.18
2023-12-23T03:58:27.683Z,3.23
2023-12-23T03:59:27.725Z,3.20
2023-12-23T04:00:27.616Z,3.27
2023-12-23T04:01:27.635Z,3.25
2023-12-23T04:02:27.591Z,3.25
2023-12-23T04:03:27.635Z,3.30
2023-12-23T04:04:27.605Z,3.27
2023-12-23T04:05:27.624Z,3.33
2023-12-23T04:06:27.591Z,3.29
2023-12-23T04:07:27.544Z,3.27
2023-12-23T04:08:27.565Z,3.23
2023-12-23T04:09:27.519Z,3.30
2023-12-23T04:10:27.504Z,3.36
2023-12-23T04:11:27.557Z,3.29
2023-12-23T04:12:27.539Z,3.33
2023-12-23T04:13:27.480Z,3.33
2023-12-23T04:14:27.468Z,3.32
2023-12-23T04:15:27.448Z,3.37
2023-12-23T04:16:27.438Z,3.44
2023-12-23T04:17:27.555Z,3.37
2023-12-23T04:18:27.480Z,3.35
2023-12-23T04:19:27.421Z,3.30
2023-12-23T04:20:27.517Z,3.35
2023-12-23T04:21:27.400Z,3.36
2023-12-23T04:22:27.408Z,3.44
2023-12-23T04:23:27.446Z,3.46
2023-12-23T04:24:27.384Z,3.35
2023-12-23T04:25:27.354Z,3.44
2023-12-23T04:26:27.369Z,3.46
2023-12-23T04:27:27.384Z,3.41
2023-12-23T04:28:27.318Z,3.51
2023-12-23T04:29:27.340Z,3.44
2023-12-23T04:30:27.392Z,3.45
2023-12-23T04:31:27.443Z,3.48
2023-12-23T04:32:27.556Z,3.44
2023-12-23T04:33:27.343Z,3.36
2023-12-23T04:34:27.249Z,3.36
2023-12-23T04:35:27.309Z,3.45
2023-12-23T04:36:27.285Z,3.48
2023-12-23T04:37:27.254Z,3.49
2023-12-23T04:38:27.212Z,3.52
2023-12-23T04:39:27.202Z,3.46
2023-12-23T04:40:27.194Z,3.55
2023-12-23T04:41:27.244Z,3.46
2023-12-23T04:42:27.169Z,3.49
2023-12-23T04:43:27.151Z,3.55
2023-12-23T04:44:27.146Z,3.48
2023-12-23T04:45:27.142Z,3.46
2023-12-23T04:46:27.168Z,3.51
2023-12-23T04:47:27.178Z,3.60
2023-12-23T04:48:27.170Z,3.60
2023-12-23T04:49:27.085Z,3.56
2023-12-23T04:50:27.097Z,3.63
2023-12-23T04:51:27.096Z,3.62
2023-12-23T04:52:27.126Z,3.66
2023-12-23T04:53:27.145Z,3.67
2023-12-23T04:54:27.040Z,3.62
2023-12-23T04:55:27.020Z,3.66
2023-12-23T04:56:27.066Z,3.70
2023-12-23T04:57:27.032Z,3.69
2023-12-23T04:58:27.002Z,3.69
2023-12-23T04:59:28.678Z,3.69
2023-12-23T05:00:26.977Z,3.67
2023-12-23T05:01:27.005Z,3.66
2023-12-23T05:02:26.949Z,3.73
2023-12-23T05:03:26.970Z,3.70
2023-12-23T05:04:26.939Z,3.73
2023-12-23T05:05:27.092Z,3.74
2023-12-23T05:06:26.990Z,3.82
2023-12-23T05:07:26.931Z,3.81
2023-12-23T05:08:26.932Z,3.87
2023-12-23T05:09:26.873Z,3.81
2023-12-23T05:10:26.881Z,3.84
2023-12-23T05:11:26.972Z,3.72
2023-12-23T05:12:26.889Z,3.87
2023-12-23T05:13:26.827Z,3.74
2023-12-23T05:14:26.827Z,3.88
2023-12-23T05:15:26.816Z,3.78
2023-12-23T05:16:26.839Z,3.88
2023-12-23T05:17:27.063Z,3.92
2023-12-23T05:18:26.846Z,3.88
2023-12-23T05:19:26.769Z,3.91
2023-12-23T05:20:26.833Z,3.80
2023-12-23T05:21:26.752Z,3.87
2023-12-23T05:22:26.763Z,3.90
2023-12-23T05:23:26.825Z,3.90
2023-12-23T05:24:26.739Z,3.87
2023-12-23T05:25:26.700Z,3.84
2023-12-23T05:26:26.729Z,3.91
2023-12-23T05:27:26.686Z,3.99
2023-12-23T05:28:26.707Z,3.87
2023-12-23T05:29:26.715Z,3.88
2023-12-23T05:30:26.677Z,3.82
2023-12-23T05:31:26.632Z,3.92
2023-12-23T05:32:29.507Z,4.00
2023-12-23T05:33:26.779Z,3.91
2023-12-23T05:34:26.628Z,3.84
2023-12-23T05:35:26.636Z,3.98
2023-12-23T05:36:26.586Z,3.94
2023-12-23T05:37:26.574Z,3.96
2023-12-23T05:38:26.673Z,4.03
2023-12-23T05:39:26.575Z,4.02
2023-12-23T05:40:26.569Z,3.99
2023-12-23T05:41:26.571Z,3.96
2023-12-23T05:42:26.522Z,4.00
2023-12-23T05:43:26.548Z,4.00
2023-12-23T05:44:26.595Z,4.03
2023-12-23T05:45:26.506Z,4.03
2023-12-23T05:46:26.498Z,4.00
2023-12-23T05:47:26.603Z,4.06
2023-12-23T05:48:26.554Z,3.99
2023-12-23T05:49:26.455Z,3.94
2023-12-23T05:50:26.508Z,3.94
2023-12-23T05:51:26.430Z,4.05
2023-12-23T05:52:26.465Z,4.05
2023-12-23T05:53:26.560Z,4.08
2023-12-23T05:54:26.389Z,4.02
2023-12-23T05:55:26.407Z,4.10
2023-12-23T05:56:26.420Z,4.02
2023-12-23T05:57:26.365Z,4.05
2023-12-23T05:58:26.386Z,4.08
2023-12-23T05:59:26.395Z,4.08
2023-12-23T06:00:26.343Z,4.16
2023-12-23T06:01:26.367Z,4.05
2023-12-23T06:02:26.389Z,4.09
2023-12-23T06:03:26.327Z,4.10
2023-12-23T06:04:26.297Z,4.08
2023-12-23T06:05:26.352Z,4.10
2023-12-23T06:06:26.359Z,4.13
2023-12-23T06:07:26.243Z,4.10
2023-12-23T06:08:26.280Z,4.18
2023-12-23T06:09:26.233Z,4.17
2023-12-23T06:10:26.284Z,4.13
2023-12-23T06:11:26.221Z,4.12
2023-12-23T06:12:26.234Z,4.20
2023-12-23T06:13:26.200Z,4.21
2023-12-23T06:14:26.246Z,4.17
2023-12-23T06:15:26.172Z,4.18
2023-12-23T06:16:26.152Z,4.17
2023-12-23T06:17:26.246Z,4.21
2023-12-23T06:18:26.223Z,4.20
2023-12-23T06:19:26.219Z,4.21
2023-12-23T06:20:26.193Z,4.26
2023-12-23T06:21:26.099Z,4.24
2023-12-23T06:22:26.097Z,4.21
2023-12-23T06:23:26.125Z,4.24
2023-12-23T06:24:26.109Z,4.26
2023-12-23T06:25:26.084Z,4.20
2023-12-23T06:26:26.060Z,4.28
2023-12-23T06:27:26.037Z,4.26
2023-12-23T06:28:26.053Z,4.27
2023-12-23T06:29:26.112Z,4.27
2023-12-23T06:30:26.068Z,4.20
2023-12-23T06:31:25.998Z,4.24
2023-12-23T06:32:26.201Z,4.30
2023-12-23T06:33:26.050Z,4.27
2023-12-23T06:34:25.966Z,4.34
2023-12-23T06:35:26.125Z,4.24
2023-12-23T06:36:25.974Z,4.30
2023-12-23T06:37:25.941Z,4.28
2023-12-23T06:38:26.001Z,4.23
2023-12-23T06:39:25.919Z,4.20
2023-12-23T06:40:25.954Z,4.27
2023-12-23T06:41:25.928Z,4.28
2023-12-23T06:42:25.890Z,4.34
2023-12-23T06:43:45.262Z,4.24
2023-12-23T06:44:26.917Z,4.27
2023-12-23T06:45:25.850Z,4.34
2023-12-23T06:46:25.879Z,4.34
2023-12-23T06:47:25.975Z,4.27
2023-12-23T06:48:25.927Z,4.26
2023-12-23T06:49:25.963Z,4.30
2023-12-23T06:50:25.855Z,4.31
2023-12-23T06:51:25.814Z,4.30
2023-12-23T06:52:25.778Z,4.30
2023-12-23T06:53:25.816Z,4.28
2023-12-23T06:54:25.759Z,4.35
2023-12-23T06:55:25.748Z,4.30
2023-12-23T06:56:25.795Z,4.30
2023-12-23T06:57:25.757Z,4.30
2023-12-23T06:58:25.720Z,4.31
2023-12-23T06:59:25.723Z,4.34
2023-12-23T07:00:25.714Z,4.35
2023-12-23T07:01:25.732Z,4.34
2023-12-23T07:02:25.670Z,4.38
2023-12-23T07:03:25.837Z,4.31
2023-12-23T07:04:25.646Z,4.34
2023-12-23T07:05:25.691Z,4.30
2023-12-23T07:06:25.628Z,4.30
2023-12-23T07:07:25.632Z,4.30
2023-12-23T07:08:25.631Z,4.42
2023-12-23T07:09:25.589Z,4.39
2023-12-23T07:10:25.582Z,4.45
2023-12-23T07:11:25.570Z,4.46
2023-12-23T07:12:25.572Z,4.41
2023-12-23T07:13:25.610Z,4.48
2023-12-23T07:14:25.651Z,4.53
2023-12-23T07:15:25.531Z,4.48
2023-12-23T07:16:25.537Z,4.46
2023-12-23T07:17:37.677Z,4.49
2023-12-23T07:18:26.583Z,4.41
2023-12-23T07:19:25.528Z,4.49
2023-12-23T07:20:25.537Z,4.49
2023-12-23T07:21:25.469Z,4.45
2023-12-23T07:22:25.450Z,4.43
2023-12-23T07:23:25.748Z,4.42
2023-12-23T07:24:25.436Z,4.46
2023-12-23T07:25:25.444Z,4.54
2023-12-23T07:26:25.481Z,4.42
2023-12-23T07:27:25.419Z,4.46
2023-12-23T07:28:25.445Z,4.46
2023-12-23T07:29:25.457Z,4.53
2023-12-23T07:30:25.447Z,4.53
2023-12-23T07:31:25.424Z,4.53
2023-12-23T07:32:25.662Z,4.59
2023-12-23T07:33:25.609Z,4.49
2023-12-23T07:34:25.324Z,4.61
2023-12-23T07:35:25.378Z,4.48
2023-12-23T07:36:25.316Z,4.53
2023-12-23T07:37:25.294Z,4.45
2023-12-23T07:38:25.375Z,4.56
2023-12-23T07:39:25.286Z,4.45
2023-12-23T07:40:27.134Z,4.42
2023-12-23T07:41:25.277Z,4.49
2023-12-23T07:42:25.238Z,4.53
2023-12-23T07:43:25.289Z,4.43
2023-12-23T07:44:25.258Z,4.42
2023-12-23T07:45:25.234Z,4.45
2023-12-23T07:46:25.196Z,4.43
2023-12-23T07:47:25.294Z,4.46
2023-12-23T07:48:25.418Z,4.48
2023-12-23T07:49:25.160Z,4.48
2023-12-23T07:50:25.194Z,4.46
2023-12-23T07:51:25.148Z,4.57
2023-12-23T07:52:25.140Z,4.53
2023-12-23T07:53:25.187Z,4.57
2023-12-23T07:54:25.190Z,4.54
2023-12-23T07:55:25.100Z,4.54
2023-12-23T07:56:25.156Z,4.54
2023-12-23T07:57:25.087Z,4.49
2023-12-23T07:58:25.092Z,4.49
2023-12-23T07:59:25.092Z,4.48
2023-12-23T08:00:25.108Z,4.49
2023-12-23T08:01:25.079Z,4.43
2023-12-23T08:02:25.156Z,4.56
2023-12-23T08:03:25.065Z,4.49
2023-12-23T08:04:25.065Z,4.53
2023-12-23T08:05:25.060Z,4.61
2023-12-23T08:06:25.086Z,4.51
2023-12-23T08:07:24.974Z,4.61
2023-12-23T08:08:25.027Z,4.67
2023-12-23T08:09:24.978Z,4.56
2023-12-23T08:10:24.934Z,4.56
2023-12-23T08:11:24.953Z,4.59
2023-12-23T08:12:24.920Z,4.57
2023-12-23T08:13:24.909Z,4.56
2023-12-23T08:14:25.013Z,4.49
2023-12-23T08:15:24.889Z,4.59
2023-12-23T08:16:24.876Z,4.59
2023-12-23T08:17:24.921Z,4.59
2023-12-23T08:18:24.965Z,4.49
2023-12-23T08:19:25.055Z,4.53
2023-12-23T08:20:24.925Z,4.54
2023-12-23T08:21:24.840Z,4.57
2023-12-23T08:22:24.823Z,4.56
2023-12-23T08:23:24.810Z,4.56
2023-12-23T08:24:24.818Z,4.56
2023-12-23T08:25:24.774Z,4.53
2023-12-23T08:26:24.854Z,4.54
2023-12-23T08:27:24.755Z,4.59
2023-12-23T08:28:24.757Z,4.60
2023-12-23T08:29:24.831Z,4.53
2023-12-23T08:30:24.815Z,4.53
2023-12-23T08:31:24.730Z,4.56
2023-12-23T08:32:24.829Z,4.56
2023-12-23T08:33:24.765Z,4.54
2023-12-23T08:34:24.784Z,4.54
2023-12-23T08:35:24.726Z,4.53
2023-12-23T08:36:24.681Z,4.51
2023-12-23T08:37:24.644Z,4.53
2023-12-23T08:38:24.776Z,4.61
2023-12-23T08:39:24.625Z,4.59
2023-12-23T08:40:24.615Z,4.64
2023-12-23T08:41:24.620Z,4.64
2023-12-23T08:42:24.593Z,4.54
2023-12-23T08:43:24.628Z,4.63
2023-12-23T08:44:24.780Z,4.53
2023-12-23T08:45:24.572Z,4.57
2023-12-23T08:46:24.576Z,4.61
2023-12-23T08:47:24.633Z,4.61
2023-12-23T08:48:24.640Z,4.53
2023-12-23T08:49:24.606Z,4.59
2023-12-23T08:50:24.597Z,4.63
2023-12-23T08:51:24.508Z,4.60
2023-12-23T08:52:24.531Z,4.57
2023-12-23T08:53:24.491Z,4.60
2023-12-23T08:54:24.465Z,4.60
2023-12-23T08:55:24.454Z,4.59
2023-12-23T08:56:24.532Z,4.64
2023-12-23T08:57:24.451Z,4.63
2023-12-23T08:58:24.411Z,4.63
2023-12-23T08:59:24.489Z,4.67
2023-12-23T09:00:24.385Z,4.67
2023-12-23T09:01:24.378Z,4.64
2023-12-23T09:02:27.780Z,4.67
2023-12-23T09:03:24.410Z,4.69
2023-12-23T09:04:24.353Z,4.69
2023-12-23T09:05:24.507Z,4.66
2023-12-23T09:06:24.425Z,4.74
2023-12-23T09:07:24.354Z,4.78
2023-12-23T09:08:24.370Z,4.63
2023-12-23T09:09:24.293Z,4.74
2023-12-23T09:10:24.280Z,4.74
2023-12-23T09:11:24.350Z,4.79
2023-12-23T09:12:24.292Z,4.78
2023-12-23T09:13:24.255Z,4.71
2023-12-23T09:14:24.378Z,4.74
2023-12-23T09:15:24.244Z,4.83
2023-12-23T09:16:24.221Z,4.72
2023-12-23T09:17:24.334Z,4.82
2023-12-23T09:18:24.313Z,4.77
2023-12-23T09:19:24.240Z,4.67
2023-12-23T09:20:24.220Z,4.67
2023-12-23T09:21:24.171Z,4.72
2023-12-23T09:22:24.194Z,4.74
2023-12-23T09:23:24.264Z,4.67
2023-12-23T09:24:24.159Z,4.74
2023-12-23T09:25:24.161Z,4.74
2023-12-23T09:26:24.187Z,4.72
2023-12-23T09:27:24.106Z,4.71
2023-12-23T09:28:24.151Z,4.71
2023-12-23T09:29:24.163Z,4.63
2023-12-23T09:30:24.100Z,4.66
2023-12-23T09:31:24.072Z,4.64
2023-12-23T09:32:24.140Z,4.54
2023-12-23T09:33:24.197Z,4.63
2023-12-23T09:34:24.035Z,4.53
2023-12-23T09:35:24.074Z,4.51
2023-12-23T09:36:24.016Z,4.57
2023-12-23T09:37:24.015Z,4.48
2023-12-23T09:38:24.041Z,4.45
2023-12-23T09:39:23.987Z,4.53
2023-12-23T09:40:23.995Z,4.42
2023-12-23T09:41:24.044Z,4.48
2023-12-23T09:42:25.417Z,4.42
2023-12-23T09:43:23.970Z,4.49
2023-12-23T09:44:23.965Z,4.48
2023-12-23T09:45:23.930Z,4.34
2023-12-23T09:46:23.925Z,4.34
2023-12-23T09:47:23.973Z,4.36
2023-12-23T09:48:23.993Z,4.38
2023-12-23T09:49:24.163Z,4.34
2023-12-23T09:50:23.942Z,4.35
2023-12-23T09:51:23.861Z,4.26
2023-12-23T09:52:23.843Z,4.35
2023-12-23T09:53:23.995Z,4.27
2023-12-23T09:54:23.869Z,4.28
2023-12-23T09:55:23.804Z,4.24
2023-12-23T09:56:23.898Z,4.21
2023-12-23T09:57:23.801Z,4.20
2023-12-23T09:58:23.802Z,4.20
2023-12-23T09:59:23.890Z,4.20
2023-12-23T10:00:23.760Z,4.23
2023-12-23T10:01:23.821Z,4.21
2023-12-23T10:02:23.964Z,4.09
2023-12-23T10:03:23.889Z,4.08
2023-12-23T10:04:23.776Z,4.10
2023-12-23T10:05:23.871Z,4.05
2023-12-23T10:06:23.881Z,4.16
2023-12-23T10:07:23.713Z,4.10
2023-12-23T10:08:23.863Z,4.06
2023-12-23T10:09:23.723Z,4.12
2023-12-23T10:10:23.731Z,4.06
2023-12-23T10:11:23.717Z,4.03
2023-12-23T10:12:23.866Z,4.08
2023-12-23T10:13:23.664Z,4.08
2023-12-23T10:14:23.716Z,4.09
2023-12-23T10:15:23.623Z,4.09
2023-12-23T10:16:23.588Z,4.10
2023-12-23T10:17:23.831Z,4.05
2023-12-23T10:18:23.709Z,4.05
2023-12-23T10:19:23.607Z,4.00
2023-12-23T10:20:23.617Z,4.00
2023-12-23T10:21:23.544Z,4.05
2023-12-23T10:22:23.523Z,4.05
2023-12-23T10:23:23.568Z,4.09
2023-12-23T10:24:23.527Z,4.17
2023-12-23T10:25:23.523Z,4.06
2023-12-23T10:26:23.570Z,4.09
2023-12-23T10:27:23.467Z,4.09
2023-12-23T10:28:23.480Z,4.03
2023-12-23T10:29:23.459Z,3.92
2023-12-23T10:30:23.503Z,3.96
2023-12-23T10:31:23.421Z,4.02
2023-12-23T10:32:23.456Z,3.98
2023-12-23T10:33:23.501Z,4.05
2023-12-23T10:34:23.421Z,4.03
2023-12-23T10:35:23.449Z,4.06
2023-12-23T10:36:23.375Z,4.06
2023-12-23T10:37:23.380Z,4.08
2023-12-23T10:38:23.684Z,3.94
2023-12-23T10:39:23.333Z,4.05
2023-12-23T10:40:25.283Z,3.94
2023-12-23T10:41:23.399Z,3.98
2023-12-23T10:42:23.334Z,3.96
2023-12-23T10:43:23.315Z,3.92
2023-12-23T10:44:23.411Z,3.91
2023-12-23T10:45:23.317Z,3.99
2023-12-23T10:46:23.297Z,3.94
2023-12-23T10:47:23.384Z,3.81
2023-12-23T10:48:23.282Z,3.81
2023-12-23T10:49:23.252Z,3.85
2023-12-23T10:50:23.251Z,3.81
2023-12-23T10:51:23.231Z,3.87
2023-12-23T10:52:23.247Z,3.88
2023-12-23T10:53:23.253Z,3.82
2023-12-23T10:54:23.182Z,3.76
2023-12-23T10:55:23.204Z,3.78
2023-12-23T10:56:23.213Z,3.80
2023-12-23T10:57:23.144Z,3.85
2023-12-23T10:58:23.170Z,3.70
2023-12-23T10:59:23.224Z,3.78
2023-12-23T11:00:23.166Z,3.73
2023-12-23T11:01:23.091Z,3.67
2023-12-23T11:02:23.211Z,3.70
2023-12-23T11:03:23.094Z,3.67
2023-12-23T11:04:23.065Z,3.73
2023-12-23T11:05:23.131Z,3.74
2023-12-23T11:06:23.168Z,3.74
2023-12-23T11:07:23.028Z,3.80
2023-12-23T11:08:23.124Z,3.82
2023-12-23T11:09:23.017Z,3.84
2023-12-23T11:10:23.021Z,3.76
2023-12-23T11:11:23.094Z,3.67
2023-12-23T11:12:22.996Z,3.69
2023-12-23T11:13:22.958Z,3.69
2023-12-23T11:14:23.011Z,3.67
2023-12-23T11:15:22.956Z,3.74
2023-12-23T11:16:22.955Z,3.69
2023-12-23T11:17:23.121Z,3.66
2023-12-23T11:18:22.976Z,3.74
2023-12-23T11:19:23.037Z,3.73
2023-12-23T11:20:22.900Z,3.74
2023-12-23T11:21:22.874Z,3.73
2023-12-23T11:22:22.875Z,3.67
2023-12-23T11:23:22.878Z,3.72
2023-12-23T11:24:22.881Z,3.69
2023-12-23T11:25:22.828Z,3.80
2023-12-23T11:26:22.846Z,3.82
2023-12-23T11:27:22.805Z,3.69
2023-12-23T11:28:22.824Z,3.81
2023-12-23T11:29:22.861Z,3.70
2023-12-23T11:30:22.836Z,3.74
2023-12-23T11:31:22.776Z,3.66
2023-12-23T11:32:22.851Z,3.56
2023-12-23T11:33:22.854Z,3.63
2023-12-23T11:34:22.780Z,3.63
2023-12-23T11:35:22.833Z,3.59
2023-12-23T11:36:22.728Z,3.60
2023-12-23T11:37:22.705Z,3.69
2023-12-23T11:38:22.765Z,3.64
2023-12-23T11:39:22.679Z,3.60
2023-12-23T11:40:22.734Z,3.66
2023-12-23T11:41:23.166Z,3.72
2023-12-23T11:42:22.653Z,3.70
2023-12-23T11:43:22.641Z,3.64
2023-12-23T11:44:22.698Z,3.69
2023-12-23T11:45:22.657Z,3.63
2023-12-23T11:46:22.612Z,3.72
2023-12-23T11:47:22.690Z,3.69
2023-12-23T11:48:22.845Z,3.67
2023-12-23T11:49:22.654Z,3.60
2023-12-23T11:50:22.682Z,3.62
2023-12-23T11:51:22.562Z,3.62
2023-12-23T11:52:22.558Z,3.60
2023-12-23T11:53:22.643Z,3.63
2023-12-23T11:54:22.551Z,3.49
2023-12-23T11:55:22.558Z,3.67
2023-12-23T11:56:22.572Z,3.62
2023-12-23T11:57:22.503Z,3.52
2023-12-23T11:58:22.483Z,3.63
2023-12-23T11:59:22.571Z,3.48
2023-12-23T12:00:22.462Z,3.48
2023-12-23T12:01:22.504Z,3.56
2023-12-23T12:02:22.582Z,3.63
2023-12-23T12:03:22.427Z,3.51
2023-12-23T12:04:22.514Z,3.52
2023-12-23T12:05:22.711Z,3.51
2023-12-23T12:06:22.503Z,3.48
2023-12-23T12:07:22.496Z,3.48
2023-12-23T12:08:22.494Z,3.51
2023-12-23T12:09:22.368Z,3.51
2023-12-23T12:10:22.379Z,3.54
2023-12-23T12:11:22.424Z,3.51
2023-12-23T12:12:22.331Z,3.49
2023-12-23T12:13:22.316Z,3.46
2023-12-23T12:14:22.424Z,3.49
2023-12-23T12:15:22.371Z,3.45
2023-12-23T12:16:22.289Z,3.49
2023-12-23T12:17:22.365Z,3.51
2023-12-23T12:18:22.297Z,3.54
2023-12-23T12:19:22.353Z,3.49
2023-12-23T12:20:22.317Z,3.45
2023-12-23T12:21:22.276Z,3.51
2023-12-23T12:22:22.234Z,3.52
2023-12-23T12:23:22.354Z,3.44
2023-12-23T12:24:22.220Z,3.51
2023-12-23T12:25:22.189Z,3.42
2023-12-23T12:26:22.261Z,3.49
2023-12-23T12:27:22.169Z,3.51
2023-12-23T12:28:22.155Z,3.51
2023-12-23T12:29:22.172Z,3.48
2023-12-23T12:30:22.172Z,3.49
2023-12-23T12:31:22.124Z,3.66
2023-12-23T12:32:22.215Z,3.54
2023-12-23T12:33:22.191Z,3.46
2023-12-23T12:34:22.141Z,3.63
2023-12-23T12:35:22.136Z,3.66
2023-12-23T12:36:22.107Z,3.46
2023-12-23T12:37:22.096Z,3.52
2023-12-23T12:38:24.202Z,3.46
2023-12-23T12:39:22.057Z,3.48
2023-12-23T12:40:22.027Z,3.63
2023-12-23T12:41:22.066Z,3.66
2023-12-23T12:42:22.047Z,3.56
2023-12-23T12:43:22.002Z,3.60
2023-12-23T12:44:22.091Z,3.64
2023-12-23T12:45:21.978Z,3.64
2023-12-23T12:46:21.971Z,3.66
2023-12-23T12:47:22.000Z,3.59
2023-12-23T12:48:22.052Z,3.64
2023-12-23T12:49:21.940Z,3.67
2023-12-23T12:50:22.002Z,3.70
2023-12-23T12:51:21.926Z,3.60
2023-12-23T12:52:21.987Z,3.72
2023-12-23T12:53:21.918Z,3.69
2023-12-23T12:54:21.890Z,3.72
2023-12-23T12:55:21.887Z,3.60
2023-12-23T12:56:22.917Z,3.72
2023-12-23T12:57:21.850Z,3.67
2023-12-23T12:58:21.871Z,3.72
2023-12-23T12:59:21.874Z,3.76
2023-12-23T13:00:21.823Z,3.67
2023-12-23T13:01:21.816Z,3.69
2023-12-23T13:02:21.881Z,3.63
2023-12-23T13:03:21.854Z,3.67
2023-12-23T13:04:21.777Z,3.66
2023-12-23T13:05:21.830Z,3.63
2023-12-23T13:06:21.850Z,3.67
2023-12-23T13:07:21.746Z,3.63
2023-12-23T13:08:21.900Z,3.70
2023-12-23T13:09:21.725Z,3.67
2023-12-23T13:10:21.711Z,3.64
2023-12-23T13:11:21.727Z,3.69
2023-12-23T13:12:21.730Z,3.73
2023-12-23T13:13:21.690Z,3.72
2023-12-23T13:14:21.710Z,3.67
2023-12-23T13:15:21.657Z,3.70
2023-12-23T13:16:21.646Z,3.67
2023-12-23T13:17:21.832Z,3.72
2023-12-23T13:18:21.752Z,3.64